Terminal Aerodrome Forecast
Issued by NWS Portland, ME

Home | Current Version | Previous Version | Text Only | Print | Product List | Glossary On
Versions: 1 2 3 4 5 6 7 8 9 10 11 12 13
458
FTUS41 KGYX 172322
TAFPWM
TAF
KPWM 172322Z 1800/1824 11004KT P6SM SCT120 OVC200
      TEMPO 1801/1803 2SM -SN BKN030 OVC090
     FM180300 06008KT 2SM -SN BKN025 OVC040
     FM180500 05008KT 1SM -SN OVC008
     FM181400 05010KT 2SM -SN OVC012
     FM181800 05010KT 4SM -SHSN BR OVC012=

USA.gov is the U.S. government's official web portal to all federal, state and local government web resources and services.